NY85 weather

CLOSED Hickory Hollow Airport
Floyd, New York, United States

Public forecast

Using degrees Fahrenheit for public forecast. Weather courtesy of forecast.io.

Closest aviation weather report (METAR) to Hickory Hollow Airport

Closest report is Griffiss International Airport, 4.2 nm (7.7 km) WSW. Retrieved 2020/01/25 21:53 UTC (58 minutes ago):

KRME 252153Z 00000KT 10SM -RA BKN009 BKN016 OVC055 02/02 A2984 RMK AO2 SLP106 P0004 T00220017

Closest aviation forecast (TAF) to Hickory Hollow Airport

Closest forecast is Griffiss International Airport, 4.2 nm (7.7 km) WSW. Retrieved 2020/01/25 18:28 UTC (4 hours ago):

TAF KRME 251726Z 2518/2618 11012G22KT 6SM -RA OVC023 FM252000 11011G24KT 3SM -RA BR OVC016 FM260200 12008KT 3SM -RASN OVC007 FM260600 VRB02KT 6SM -SN OVC012 FM261500 VRB04KT P6SM -RASN OVC020